createdAt,value
2023-03-29T00:02:19.858Z,1.88
2023-03-29T00:04:47.123Z,2.10
2023-03-29T00:07:14.278Z,2.38
2023-03-29T00:09:41.620Z,2.30
2023-03-29T00:12:08.605Z,2.03
2023-03-29T00:14:37.231Z,2.00
2023-03-29T00:17:04.470Z,1.90
2023-03-29T00:19:35.814Z,2.10
2023-03-29T00:22:06.617Z,2.38
2023-03-29T00:24:33.729Z,1.80
2023-03-29T00:27:01.109Z,2.38
2023-03-29T00:29:28.606Z,2.10
2023-03-29T00:31:56.236Z,2.13
2023-03-29T00:34:25.099Z,1.95
2023-03-29T00:36:53.230Z,2.10
2023-03-29T00:39:21.274Z,2.30
2023-03-29T00:41:49.740Z,2.13
2023-03-29T00:44:54.047Z,1.90
2023-03-29T00:47:34.769Z,1.88
2023-03-29T00:50:08.729Z,2.03
2023-03-29T00:52:36.232Z,1.95
2023-03-29T00:55:11.081Z,2.15
2023-03-29T00:57:40.532Z,2.38
2023-03-29T01:00:10.243Z,2.15
2023-03-29T01:02:40.053Z,1.90
2023-03-29T01:05:25.293Z,2.00
2023-03-29T01:08:11.249Z,2.03
2023-03-29T01:10:44.851Z,1.80
2023-03-29T01:13:18.195Z,1.95
2023-03-29T01:15:47.095Z,2.10
2023-03-29T01:18:14.647Z,1.80
2023-03-29T01:21:08.037Z,2.35
2023-03-29T01:23:48.328Z,2.10
2023-03-29T01:26:36.105Z,1.75
2023-03-29T01:29:14.362Z,1.75
2023-03-29T01:31:47.799Z,2.05
2023-03-29T01:34:34.948Z,2.00
2023-03-29T01:37:08.314Z,1.90
2023-03-29T01:39:35.751Z,1.92
2023-03-29T01:42:30.358Z,1.80
2023-03-29T01:45:10.057Z,1.92
2023-03-29T01:47:57.823Z,1.83
2023-03-29T01:50:48.649Z,2.05
2023-03-29T01:53:36.604Z,1.65
2023-03-29T01:56:26.515Z,1.77
2023-03-29T01:59:04.289Z,1.80
2023-03-29T02:01:40.897Z,1.70
2023-03-29T02:04:13.499Z,2.40
2023-03-29T02:06:42.110Z,1.70
2023-03-29T02:09:09.656Z,1.80
2023-03-29T02:11:37.086Z,2.03
2023-03-29T02:14:04.112Z,2.10
2023-03-29T02:16:39.126Z,1.95
2023-03-29T02:19:07.948Z,1.95
2023-03-29T02:21:49.170Z,1.88
2023-03-29T02:24:19.170Z,2.13
2023-03-29T02:26:46.516Z,1.88
2023-03-29T02:29:14.252Z,1.85
2023-03-29T02:31:47.832Z,2.03
2023-03-29T02:34:37.700Z,2.00
2023-03-29T02:37:10.422Z,2.15
2023-03-29T02:39:38.468Z,2.10
2023-03-29T02:42:06.508Z,2.20
2023-03-29T02:44:38.006Z,1.98
2023-03-29T02:47:13.870Z,2.05
2023-03-29T02:49:40.867Z,2.00
2023-03-29T02:52:14.399Z,2.20
2023-03-29T02:54:43.597Z,2.00
2023-03-29T02:57:10.959Z,2.33
2023-03-29T02:59:38.776Z,1.98
2023-03-29T03:02:05.796Z,1.90
2023-03-29T03:04:35.521Z,2.10
2023-03-29T03:07:04.854Z,1.90
2023-03-29T03:09:31.942Z,2.10
2023-03-29T03:11:58.914Z,2.13
2023-03-29T03:14:25.868Z,1.90
2023-03-29T03:16:52.925Z,2.05
2023-03-29T03:19:20.508Z,1.80
2023-03-29T03:21:47.626Z,1.88
2023-03-29T03:24:15.651Z,2.03
2023-03-29T03:26:43.632Z,1.88
2023-03-29T03:29:11.336Z,2.30
2023-03-29T03:31:41.235Z,2.00
2023-03-29T03:34:08.779Z,1.90
2023-03-29T03:36:35.900Z,2.00
2023-03-29T03:39:05.891Z,1.92
2023-03-29T03:41:33.966Z,2.08
2023-03-29T03:44:00.978Z,2.60
2023-03-29T03:46:29.481Z,2.42
2023-03-29T03:48:57.738Z,2.33
2023-03-29T03:51:24.776Z,2.00
2023-03-29T03:53:52.200Z,2.00
2023-03-29T03:56:20.584Z,1.85
2023-03-29T03:58:47.795Z,2.13
2023-03-29T04:01:14.812Z,2.20
2023-03-29T04:03:41.763Z,1.90
2023-03-29T04:06:09.843Z,1.90
2023-03-29T04:08:36.835Z,1.92
2023-03-29T04:11:04.763Z,2.30
2023-03-29T04:13:31.981Z,2.17
2023-03-29T04:16:01.416Z,1.90
2023-03-29T04:18:28.929Z,1.95
2023-03-29T04:20:55.951Z,1.75
2023-03-29T04:23:22.952Z,1.58
2023-03-29T04:25:50.208Z,1.60
2023-03-29T04:28:17.273Z,1.52
2023-03-29T04:30:46.751Z,1.90
2023-03-29T04:33:13.735Z,2.00
2023-03-29T04:35:40.734Z,2.03
2023-03-29T04:38:10.236Z,1.92
2023-03-29T04:40:38.488Z,2.10
2023-03-29T04:43:06.440Z,1.88
2023-03-29T04:45:33.340Z,1.98
2023-03-29T04:48:00.357Z,2.00
2023-03-29T04:50:27.648Z,2.17
2023-03-29T04:52:54.598Z,2.10
2023-03-29T04:55:21.568Z,2.08
2023-03-29T04:57:48.474Z,1.95
2023-03-29T05:00:16.900Z,2.08
2023-03-29T05:02:44.821Z,1.75
2023-03-29T05:05:12.572Z,1.60
2023-03-29T05:07:39.609Z,1.88
2023-03-29T05:10:07.195Z,2.13
2023-03-29T05:12:34.325Z,1.85
2023-03-29T05:15:01.453Z,2.03
2023-03-29T05:17:28.562Z,1.80
2023-03-29T05:19:55.500Z,2.00
2023-03-29T05:22:23.551Z,1.90
2023-03-29T05:24:51.640Z,1.88
2023-03-29T05:27:18.808Z,1.65
2023-03-29T05:29:45.789Z,2.20
2023-03-29T05:32:13.750Z,2.10
2023-03-29T05:34:41.553Z,2.42
2023-03-29T05:37:08.555Z,2.00
2023-03-29T05:39:37.819Z,2.30
2023-03-29T05:42:05.622Z,2.00
2023-03-29T05:44:32.860Z,2.15
2023-03-29T05:47:00.018Z,2.42
2023-03-29T05:49:27.235Z,2.40
2023-03-29T05:51:57.315Z,2.50
2023-03-29T05:54:25.530Z,2.53
2023-03-29T05:56:52.559Z,2.47
2023-03-29T05:59:19.882Z,3.08
2023-03-29T06:01:49.926Z,2.65
2023-03-29T06:04:18.236Z,3.05
2023-03-29T06:06:45.403Z,2.60
2023-03-29T06:09:12.491Z,2.75
2023-03-29T06:11:39.446Z,2.72
2023-03-29T06:14:06.696Z,2.90
2023-03-29T06:16:33.759Z,3.10
2023-03-29T06:19:00.841Z,2.72
2023-03-29T06:21:28.809Z,2.90
2023-03-29T06:23:55.757Z,3.22
2023-03-29T06:26:23.173Z,3.47
2023-03-29T06:28:52.081Z,3.92
2023-03-29T06:31:20.119Z,3.63
2023-03-29T06:33:47.295Z,3.22
2023-03-29T06:36:16.346Z,3.30
2023-03-29T06:38:45.926Z,5.80
2023-03-29T06:41:12.953Z,3.90
2023-03-29T06:43:40.011Z,3.53
2023-03-29T06:46:12.340Z,4.05
2023-03-29T06:48:41.212Z,4.13
2023-03-29T06:51:08.638Z,4.32
2023-03-29T06:53:36.776Z,4.18
2023-03-29T06:56:09.396Z,3.58
2023-03-29T06:58:37.117Z,3.90
2023-03-29T07:01:04.856Z,4.40
2023-03-29T07:03:35.076Z,3.97
2023-03-29T07:06:09.614Z,4.25
2023-03-29T07:08:43.549Z,3.55
2023-03-29T07:11:14.766Z,4.43
2023-03-29T07:13:42.737Z,4.18
2023-03-29T07:16:13.055Z,3.80
2023-03-29T07:18:41.849Z,4.32
2023-03-29T07:21:10.669Z,4.32
2023-03-29T07:23:38.122Z,4.18
2023-03-29T07:26:07.641Z,4.18
2023-03-29T07:28:38.047Z,4.28
2023-03-29T07:31:07.517Z,4.13
2023-03-29T07:33:35.386Z,4.43
2023-03-29T07:36:03.457Z,4.07
2023-03-29T07:38:31.567Z,4.00
2023-03-29T07:40:59.669Z,3.70
2023-03-29T07:43:26.873Z,3.83
2023-03-29T07:45:54.160Z,3.92
2023-03-29T07:48:21.592Z,4.30
2023-03-29T07:50:48.637Z,4.28
2023-03-29T07:53:16.006Z,4.93
2023-03-29T07:55:47.713Z,5.05
2023-03-29T07:58:15.509Z,4.60
2023-03-29T08:00:44.195Z,5.30
2023-03-29T08:03:13.335Z,4.82
2023-03-29T08:05:41.920Z,4.95
2023-03-29T08:08:09.959Z,4.55
2023-03-29T08:10:39.260Z,4.82
2023-03-29T08:13:08.514Z,4.35
2023-03-29T08:15:37.911Z,4.72
2023-03-29T08:18:05.607Z,3.92
2023-03-29T08:20:32.828Z,4.00
2023-03-29T08:22:59.975Z,4.10
2023-03-29T08:25:27.095Z,4.50
2023-03-29T08:27:54.241Z,4.38
2023-03-29T08:30:21.796Z,4.93
2023-03-29T08:32:51.643Z,4.38
2023-03-29T08:35:21.899Z,4.70
2023-03-29T08:37:48.789Z,4.70
2023-03-29T08:40:21.807Z,4.50
2023-03-29T08:43:02.124Z,4.15
2023-03-29T08:45:37.958Z,4.63
2023-03-29T08:48:24.545Z,5.05
2023-03-29T08:50:54.795Z,4.50
2023-03-29T08:53:34.702Z,4.68
2023-03-29T08:56:08.855Z,4.90
2023-03-29T08:58:37.870Z,5.35
2023-03-29T09:01:08.778Z,4.72
2023-03-29T09:03:51.153Z,4.82
2023-03-29T09:06:20.797Z,4.78
2023-03-29T09:08:49.830Z,5.13
2023-03-29T09:11:34.738Z,5.55
2023-03-29T09:14:35.712Z,5.32
2023-03-29T09:17:40.933Z,5.65
2023-03-29T09:20:38.520Z,5.15
2023-03-29T09:23:28.628Z,5.85
2023-03-29T09:26:05.779Z,5.90
2023-03-29T09:28:47.643Z,5.57
2023-03-29T09:31:21.596Z,5.88
2023-03-29T09:36:51.566Z,6.53
2023-03-29T09:39:21.188Z,6.38
2023-03-29T09:41:54.757Z,7.07
2023-03-29T09:44:33.224Z,6.32
2023-03-29T09:47:12.778Z,5.97
2023-03-29T09:49:43.839Z,5.65
2023-03-29T09:52:14.746Z,5.40
2023-03-29T09:54:41.806Z,5.32
2023-03-29T09:57:15.548Z,5.32
2023-03-29T09:59:43.942Z,5.00
2023-03-29T10:02:13.196Z,5.10
2023-03-29T10:04:42.677Z,4.72
2023-03-29T10:07:18.302Z,4.97
2023-03-29T10:09:46.623Z,4.88
2023-03-29T10:12:14.295Z,4.70
2023-03-29T10:14:46.630Z,4.05
2023-03-29T10:17:24.225Z,4.70
2023-03-29T10:19:56.035Z,4.20
2023-03-29T10:22:25.753Z,3.53
2023-03-29T10:24:55.186Z,3.40
2023-03-29T10:27:29.037Z,2.88
2023-03-29T10:29:58.471Z,3.85
2023-03-29T10:32:34.472Z,2.85
2023-03-29T10:35:48.976Z,3.03
2023-03-29T10:38:22.044Z,3.33
2023-03-29T10:40:51.875Z,3.37
2023-03-29T10:43:34.908Z,3.10
2023-03-29T10:46:19.637Z,2.28
2023-03-29T10:49:12.640Z,3.00
2023-03-29T10:51:46.896Z,2.20
2023-03-29T10:54:17.511Z,1.77
2023-03-29T10:57:08.300Z,1.35
2023-03-29T10:59:57.946Z,1.50
2023-03-29T11:02:30.902Z,2.08
2023-03-29T11:05:20.510Z,1.90
2023-03-29T11:08:06.897Z,2.10
2023-03-29T11:10:33.957Z,2.40
2023-03-29T11:13:13.453Z,1.80
2023-03-29T11:15:49.589Z,1.95
2023-03-29T11:18:41.430Z,2.22
2023-03-29T11:21:42.646Z,2.13
2023-03-29T11:24:54.923Z,2.22
2023-03-29T11:28:07.801Z,2.25
2023-03-29T11:30:43.681Z,2.33
2023-03-29T11:33:19.653Z,2.40
2023-03-29T11:35:56.513Z,2.22
2023-03-29T11:38:46.702Z,2.50
2023-03-29T11:41:28.934Z,2.65
2023-03-29T11:44:14.260Z,2.75
2023-03-29T11:46:57.028Z,2.55
2023-03-29T11:49:37.436Z,2.67
2023-03-29T11:52:39.040Z,2.63
2023-03-29T11:55:15.407Z,2.75
2023-03-29T11:57:52.941Z,2.45
2023-03-29T12:00:55.412Z,2.03
2023-03-29T12:03:40.846Z,2.92
2023-03-29T12:06:22.438Z,2.22
2023-03-29T12:09:04.246Z,2.28
2023-03-29T12:11:55.709Z,2.50
2023-03-29T12:14:30.414Z,2.35
2023-03-29T12:17:04.517Z,2.90
2023-03-29T12:19:43.346Z,2.15
2023-03-29T12:22:13.552Z,2.42
2023-03-29T12:24:43.949Z,2.42
2023-03-29T12:27:34.047Z,3.05
2023-03-29T12:30:25.925Z,2.38
2023-03-29T12:33:03.775Z,2.45
2023-03-29T12:35:37.817Z,2.35
2023-03-29T12:38:15.694Z,2.38
2023-03-29T12:40:45.821Z,2.88
2023-03-29T12:43:40.233Z,2.60
2023-03-29T12:46:26.713Z,2.42
2023-03-29T12:48:59.759Z,2.65
2023-03-29T12:51:34.844Z,3.00
2023-03-29T12:54:07.803Z,2.58
2023-03-29T12:57:02.993Z,2.35
2023-03-29T12:59:48.269Z,2.75
2023-03-29T13:02:15.337Z,2.60
2023-03-29T13:04:57.238Z,2.42
2023-03-29T13:07:24.289Z,2.03
2023-03-29T13:09:56.716Z,2.10
2023-03-29T13:12:31.437Z,1.65
2023-03-29T13:15:22.378Z,2.40
2023-03-29T13:18:09.610Z,2.38
2023-03-29T13:20:50.394Z,1.92
2023-03-29T13:23:28.602Z,2.40
2023-03-29T13:26:27.185Z,1.90
2023-03-29T13:29:16.694Z,1.90
2023-03-29T13:32:22.851Z,1.92
2023-03-29T13:35:27.856Z,2.25
2023-03-29T13:38:09.115Z,1.95
2023-03-29T13:40:44.938Z,1.60
2023-03-29T13:43:23.612Z,1.77
2023-03-29T13:45:59.703Z,2.20
2023-03-29T13:48:28.765Z,2.05
2023-03-29T13:51:20.193Z,1.88
2023-03-29T13:54:16.358Z,1.98
2023-03-29T13:57:03.881Z,1.90
2023-03-29T14:00:21.826Z,1.80
2023-03-29T14:03:05.327Z,2.05
2023-03-29T14:05:37.569Z,1.77
2023-03-29T14:08:30.269Z,1.98
2023-03-29T14:11:01.330Z,1.80
2023-03-29T14:13:29.632Z,2.10
2023-03-29T14:16:03.035Z,2.40
2023-03-29T14:18:44.694Z,2.70
2023-03-29T14:21:15.198Z,1.67
2023-03-29T14:23:46.212Z,1.80
2023-03-29T14:26:17.645Z,1.70
2023-03-29T14:28:50.643Z,1.85
2023-03-29T14:31:22.344Z,1.75
2023-03-29T14:33:57.803Z,1.67
2023-03-29T14:36:27.217Z,2.28
2023-03-29T14:39:18.564Z,1.90
2023-03-29T14:41:53.060Z,1.77
2023-03-29T14:44:26.056Z,1.88
2023-03-29T14:46:54.224Z,2.27
2023-03-29T14:49:23.292Z,1.92
2023-03-29T14:51:52.244Z,2.08
2023-03-29T14:54:32.828Z,2.20
2023-03-29T14:57:00.248Z,2.30
2023-03-29T14:59:37.462Z,2.10
2023-03-29T15:02:05.001Z,1.92
2023-03-29T15:04:36.135Z,1.98
2023-03-29T15:07:05.038Z,2.10
2023-03-29T15:09:34.989Z,1.70
2023-03-29T15:12:03.632Z,2.20
2023-03-29T15:14:38.256Z,2.22
2023-03-29T15:17:31.296Z,2.38
2023-03-29T15:20:18.666Z,2.45
2023-03-29T15:23:14.378Z,2.80
2023-03-29T15:26:29.176Z,2.78
2023-03-29T15:29:41.842Z,2.63
2023-03-29T15:32:11.650Z,2.40
2023-03-29T15:34:38.685Z,2.30
2023-03-29T15:37:05.805Z,3.15
2023-03-29T15:39:35.391Z,6.25
2023-03-29T15:42:02.529Z,3.83
2023-03-29T15:44:35.453Z,2.40
2023-03-29T15:47:02.642Z,3.55
2023-03-29T15:49:29.663Z,3.78
2023-03-29T15:51:56.774Z,3.55
2023-03-29T15:54:24.943Z,2.92
2023-03-29T15:56:57.074Z,4.00
2023-03-29T15:59:24.486Z,3.10
2023-03-29T16:01:51.841Z,5.45
2023-03-29T16:04:22.679Z,3.67
2023-03-29T16:06:53.036Z,2.88
2023-03-29T16:09:21.772Z,1.98
2023-03-29T16:11:49.689Z,2.30
2023-03-29T16:14:25.558Z,2.05
2023-03-29T16:16:53.540Z,2.45
2023-03-29T16:19:20.621Z,2.58
2023-03-29T16:21:48.272Z,3.08
2023-03-29T16:24:24.875Z,2.72
2023-03-29T16:26:54.753Z,3.70
2023-03-29T16:29:24.706Z,2.60
2023-03-29T16:31:53.184Z,2.78
2023-03-29T16:34:20.703Z,2.70
2023-03-29T16:36:47.902Z,2.50
2023-03-29T16:39:16.055Z,3.10
2023-03-29T16:41:45.192Z,2.55
2023-03-29T16:44:23.814Z,2.50
2023-03-29T16:46:54.038Z,2.40
2023-03-29T16:49:21.643Z,2.65
2023-03-29T16:51:48.979Z,2.85
2023-03-29T16:54:19.797Z,3.28
2023-03-29T16:56:47.251Z,2.70
2023-03-29T16:59:14.461Z,2.80
2023-03-29T17:01:41.646Z,2.80
2023-03-29T17:04:09.250Z,2.80
2023-03-29T17:06:36.443Z,2.58
2023-03-29T17:09:05.149Z,2.88
2023-03-29T17:11:32.394Z,3.92
2023-03-29T17:14:00.164Z,3.10
2023-03-29T17:16:29.233Z,3.97
2023-03-29T17:19:00.627Z,3.33
2023-03-29T17:21:28.972Z,5.43
2023-03-29T17:23:55.950Z,3.47
2023-03-29T17:26:22.913Z,3.45
2023-03-29T17:28:49.934Z,2.97
2023-03-29T17:31:19.174Z,3.30
2023-03-29T17:33:46.327Z,3.10
2023-03-29T17:36:13.318Z,5.30
2023-03-29T17:38:40.362Z,6.38
2023-03-29T17:41:08.414Z,7.40
2023-03-29T17:43:35.277Z,3.55
2023-03-29T17:46:02.401Z,3.88
2023-03-29T17:48:29.458Z,3.80
2023-03-29T17:50:57.869Z,3.63
2023-03-29T17:53:25.307Z,3.22
2023-03-29T17:55:52.581Z,3.28
2023-03-29T17:58:19.623Z,3.40
2023-03-29T18:00:46.550Z,4.07
2023-03-29T18:03:13.656Z,3.90
2023-03-29T18:05:40.852Z,4.40
2023-03-29T18:08:08.742Z,3.70
2023-03-29T18:10:37.370Z,2.95
2023-03-29T18:13:04.301Z,3.85
2023-03-29T18:15:31.279Z,4.28
2023-03-29T18:17:58.248Z,3.92
2023-03-29T18:20:25.268Z,3.97
2023-03-29T18:22:52.065Z,2.75
2023-03-29T18:25:20.152Z,2.80
2023-03-29T18:27:47.132Z,2.85
2023-03-29T18:30:16.685Z,2.85
2023-03-29T18:32:43.758Z,2.75
2023-03-29T18:35:12.002Z,3.42
2023-03-29T18:37:38.834Z,2.40
2023-03-29T18:40:09.339Z,2.10
2023-03-29T18:42:36.834Z,2.38
2023-03-29T18:45:04.791Z,2.78
2023-03-29T18:47:31.742Z,2.67
2023-03-29T18:49:58.578Z,2.80
2023-03-29T18:52:25.406Z,2.28
2023-03-29T18:54:52.275Z,3.15
2023-03-29T18:57:19.208Z,2.72
2023-03-29T18:59:47.458Z,2.60
2023-03-29T19:02:14.482Z,2.80
2023-03-29T19:04:42.870Z,2.67
2023-03-29T19:07:09.796Z,2.63
2023-03-29T19:09:37.795Z,3.28
2023-03-29T19:12:05.353Z,5.00
2023-03-29T19:14:36.035Z,6.63
2023-03-29T19:17:02.887Z,3.40
2023-03-29T19:19:29.727Z,2.90
2023-03-29T19:21:59.012Z,4.88
2023-03-29T19:24:29.020Z,3.42
2023-03-29T19:26:56.601Z,2.88
2023-03-29T19:29:24.070Z,2.85
2023-03-29T19:31:52.066Z,3.70
2023-03-29T19:34:23.958Z,3.10
2023-03-29T19:36:53.649Z,3.35
2023-03-29T19:39:22.050Z,3.28
2023-03-29T19:41:49.077Z,2.95
2023-03-29T19:44:17.524Z,3.63
2023-03-29T19:46:44.445Z,3.15
2023-03-29T19:49:14.011Z,3.85
2023-03-29T19:51:42.190Z,3.85
2023-03-29T19:54:12.872Z,3.28
2023-03-29T19:56:42.970Z,3.00
2023-03-29T19:59:15.606Z,3.30
2023-03-29T20:01:52.180Z,3.78
2023-03-29T20:04:21.832Z,3.67
2023-03-29T20:06:52.192Z,3.70
2023-03-29T20:09:21.170Z,4.88
2023-03-29T20:11:50.034Z,3.25
2023-03-29T20:14:17.171Z,3.15
2023-03-29T20:16:46.547Z,3.60
2023-03-29T20:19:15.537Z,3.38
2023-03-29T20:21:44.659Z,4.28
2023-03-29T20:24:12.922Z,4.30
2023-03-29T20:26:40.062Z,4.03
2023-03-29T20:29:08.078Z,3.15
2023-03-29T20:31:36.194Z,3.03
2023-03-29T20:34:03.273Z,3.10
2023-03-29T20:36:30.870Z,2.95
2023-03-29T20:38:59.372Z,3.00
2023-03-29T20:41:26.529Z,2.88
2023-03-29T20:44:00.059Z,5.97
2023-03-29T20:46:38.116Z,3.30
2023-03-29T20:49:09.058Z,2.80
2023-03-29T20:51:37.926Z,3.10
2023-03-29T20:54:07.778Z,3.20
2023-03-29T20:56:42.359Z,3.00
2023-03-29T20:59:12.660Z,3.60
2023-03-29T21:01:42.801Z,3.40
2023-03-29T21:04:10.991Z,2.70
2023-03-29T21:06:41.561Z,3.17
2023-03-29T21:09:08.711Z,3.33
2023-03-29T21:11:35.645Z,3.55
2023-03-29T21:14:02.712Z,3.60
2023-03-29T21:16:29.821Z,3.17
2023-03-29T21:18:56.980Z,2.70
2023-03-29T21:21:23.900Z,3.33
2023-03-29T21:23:51.034Z,2.90
2023-03-29T21:26:18.246Z,3.47
2023-03-29T21:28:45.210Z,2.88
2023-03-29T21:31:12.496Z,3.60
2023-03-29T21:33:39.383Z,2.95
2023-03-29T21:36:06.660Z,3.22
2023-03-29T21:38:35.598Z,3.65
2023-03-29T21:41:03.353Z,3.47
2023-03-29T21:43:30.468Z,3.13
2023-03-29T21:45:57.816Z,3.97
2023-03-29T21:48:25.001Z,3.58
2023-03-29T21:50:52.130Z,3.75
2023-03-29T21:53:19.373Z,3.40
2023-03-29T21:55:49.420Z,3.30
2023-03-29T21:58:16.750Z,3.22
2023-03-29T22:00:44.064Z,3.05
2023-03-29T22:03:11.561Z,3.20
2023-03-29T22:05:38.640Z,3.00
2023-03-29T22:08:06.717Z,3.20
2023-03-29T22:10:33.674Z,3.17
2023-03-29T22:13:01.144Z,2.67
2023-03-29T22:15:35.574Z,3.40
2023-03-29T22:18:03.714Z,2.80
2023-03-29T22:20:31.091Z,3.20
2023-03-29T22:22:58.032Z,3.38
2023-03-29T22:25:24.983Z,2.67
2023-03-29T22:27:51.917Z,3.33
2023-03-29T22:30:19.109Z,2.95
2023-03-29T22:32:46.089Z,2.65
2023-03-29T22:35:13.109Z,2.97
2023-03-29T22:37:42.036Z,3.10
2023-03-29T22:40:10.823Z,3.33
2023-03-29T22:42:37.941Z,3.40
2023-03-29T22:45:06.534Z,4.50
2023-03-29T22:47:34.336Z,3.65
2023-03-29T22:50:01.834Z,4.00
2023-03-29T22:52:28.797Z,3.75
2023-03-29T22:54:55.672Z,3.50
2023-03-29T22:57:22.818Z,3.67
2023-03-29T22:59:49.913Z,3.90
2023-03-29T23:02:17.269Z,3.47
2023-03-29T23:04:45.403Z,4.07
2023-03-29T23:07:12.420Z,3.50
2023-03-29T23:09:39.415Z,3.60
2023-03-29T23:12:06.896Z,3.92
2023-03-29T23:14:34.165Z,3.55
2023-03-29T23:17:01.066Z,3.38
2023-03-29T23:19:27.926Z,3.47
2023-03-29T23:21:55.508Z,3.92
2023-03-29T23:24:22.944Z,3.40
2023-03-29T23:26:49.741Z,3.00
2023-03-29T23:29:16.648Z,3.55
2023-03-29T23:31:44.394Z,3.28
2023-03-29T23:34:13.521Z,3.50
2023-03-29T23:36:40.758Z,3.65
2023-03-29T23:39:08.126Z,3.35
2023-03-29T23:41:35.205Z,3.55
2023-03-29T23:44:03.865Z,3.97
2023-03-29T23:46:31.497Z,3.72
2023-03-29T23:48:59.025Z,3.72
2023-03-29T23:51:28.421Z,4.03
2023-03-29T23:53:56.621Z,4.10
2023-03-29T23:56:23.609Z,3.50
2023-03-29T23:58:50.631Z,3.30
